sensor_id;sensor_type;location;lat;lon;timestamp;temperature;humidity
73547;SHT30;61807;48.384;-4.386;2023-07-31T00:01:26;18.85;81.22
73547;SHT30;61807;48.384;-4.386;2023-07-31T00:03:51;18.85;81.28
73547;SHT30;61807;48.384;-4.386;2023-07-31T00:06:17;18.82;81.24
73547;SHT30;61807;48.384;-4.386;2023-07-31T00:08:42;18.84;81.24
73547;SHT30;61807;48.384;-4.386;2023-07-31T00:11:07;18.85;81.34
73547;SHT30;61807;48.384;-4.386;2023-07-31T00:13:33;18.85;81.38
73547;SHT30;61807;48.384;-4.386;2023-07-31T00:15:59;18.85;81.54
73547;SHT30;61807;48.384;-4.386;2023-07-31T00:18:24;18.87;81.50
73547;SHT30;61807;48.384;-4.386;2023-07-31T00:20:49;18.82;81.48
73547;SHT30;61807;48.384;-4.386;2023-07-31T00:23:15;18.85;81.61
73547;SHT30;61807;48.384;-4.386;2023-07-31T00:25:41;18.84;81.68
73547;SHT30;61807;48.384;-4.386;2023-07-31T00:28:07;18.85;81.71
73547;SHT30;61807;48.384;-4.386;2023-07-31T00:30:32;18.82;81.78
73547;SHT30;61807;48.384;-4.386;2023-07-31T00:32:58;18.85;81.75
73547;SHT30;61807;48.384;-4.386;2023-07-31T00:35:23;18.84;81.93
73547;SHT30;61807;48.384;-4.386;2023-07-31T00:37:48;18.81;81.90
73547;SHT30;61807;48.384;-4.386;2023-07-31T00:40:14;18.82;81.86
73547;SHT30;61807;48.384;-4.386;2023-07-31T00:42:39;18.82;81.99
73547;SHT30;61807;48.384;-4.386;2023-07-31T00:45:05;18.84;81.97
73547;SHT30;61807;48.384;-4.386;2023-07-31T00:47:30;18.85;81.99
73547;SHT30;61807;48.384;-4.386;2023-07-31T00:49:56;18.84;82.15
73547;SHT30;61807;48.384;-4.386;2023-07-31T00:52:21;18.85;82.27
73547;SHT30;61807;48.384;-4.386;2023-07-31T00:54:48;18.85;82.17
73547;SHT30;61807;48.384;-4.386;2023-07-31T00:57:14;18.87;82.23
73547;SHT30;61807;48.384;-4.386;2023-07-31T00:59:39;18.89;82.20
73547;SHT30;61807;48.384;-4.386;2023-07-31T01:02:05;18.88;82.23
73547;SHT30;61807;48.384;-4.386;2023-07-31T01:04:31;18.89;82.20
73547;SHT30;61807;48.384;-4.386;2023-07-31T01:07:27;18.91;82.25
73547;SHT30;61807;48.384;-4.386;2023-07-31T01:10:03;18.88;82.33
73547;SHT30;61807;48.384;-4.386;2023-07-31T01:12:30;18.88;82.37
73547;SHT30;61807;48.384;-4.386;2023-07-31T01:15:06;18.85;82.56
73547;SHT30;61807;48.384;-4.386;2023-07-31T01:17:32;18.87;82.69
73547;SHT30;61807;48.384;-4.386;2023-07-31T01:20:02;18.85;82.78
73547;SHT30;61807;48.384;-4.386;2023-07-31T01:28:13;18.87;82.87
73547;SHT30;61807;48.384;-4.386;2023-07-31T01:30:44;18.84;82.94
73547;SHT30;61807;48.384;-4.386;2023-07-31T01:33:12;18.84;82.96
73547;SHT30;61807;48.384;-4.386;2023-07-31T01:35:39;18.84;83.18
73547;SHT30;61807;48.384;-4.386;2023-07-31T01:38:05;18.85;83.14
73547;SHT30;61807;48.384;-4.386;2023-07-31T01:40:30;18.82;83.28
73547;SHT30;61807;48.384;-4.386;2023-07-31T01:42:56;18.84;83.25
73547;SHT30;61807;48.384;-4.386;2023-07-31T01:45:21;18.82;83.47
73547;SHT30;61807;48.384;-4.386;2023-07-31T01:47:46;18.82;83.51
73547;SHT30;61807;48.384;-4.386;2023-07-31T01:50:12;18.82;83.60
73547;SHT30;61807;48.384;-4.386;2023-07-31T01:52:37;18.81;83.69
73547;SHT30;61807;48.384;-4.386;2023-07-31T01:55:03;18.79;83.96
73547;SHT30;61807;48.384;-4.386;2023-07-31T01:57:29;18.79;83.86
73547;SHT30;61807;48.384;-4.386;2023-07-31T01:59:54;18.76;84.02
73547;SHT30;61807;48.384;-4.386;2023-07-31T02:02:19;18.78;84.03
73547;SHT30;61807;48.384;-4.386;2023-07-31T02:04:45;18.75;84.05
73547;SHT30;61807;48.384;-4.386;2023-07-31T02:07:11;18.76;84.08
73547;SHT30;61807;48.384;-4.386;2023-07-31T02:09:37;18.73;84.24
73547;SHT30;61807;48.384;-4.386;2023-07-31T02:12:02;18.72;84.32
73547;SHT30;61807;48.384;-4.386;2023-07-31T02:14:28;18.72;84.50
73547;SHT30;61807;48.384;-4.386;2023-07-31T02:16:53;18.72;84.45
73547;SHT30;61807;48.384;-4.386;2023-07-31T02:19:18;18.71;84.56
73547;SHT30;61807;48.384;-4.386;2023-07-31T02:21:44;18.72;84.56
73547;SHT30;61807;48.384;-4.386;2023-07-31T02:24:09;18.71;84.75
73547;SHT30;61807;48.384;-4.386;2023-07-31T02:26:35;18.69;84.75
73547;SHT30;61807;48.384;-4.386;2023-07-31T02:29:00;18.69;84.88
73547;SHT30;61807;48.384;-4.386;2023-07-31T02:31:26;18.69;85.00
73547;SHT30;61807;48.384;-4.386;2023-07-31T02:33:51;18.68;85.04
73547;SHT30;61807;48.384;-4.386;2023-07-31T02:36:16;18.65;85.16
73547;SHT30;61807;48.384;-4.386;2023-07-31T02:38:42;18.67;85.18
73547;SHT30;61807;48.384;-4.386;2023-07-31T02:41:07;18.65;85.24
73547;SHT30;61807;48.384;-4.386;2023-07-31T02:43:32;18.64;85.30
73547;SHT30;61807;48.384;-4.386;2023-07-31T02:45:59;18.67;85.43
73547;SHT30;61807;48.384;-4.386;2023-07-31T02:48:24;18.67;85.52
73547;SHT30;61807;48.384;-4.386;2023-07-31T02:50:50;18.68;85.42
73547;SHT30;61807;48.384;-4.386;2023-07-31T02:53:15;18.69;85.50
73547;SHT30;61807;48.384;-4.386;2023-07-31T02:55:41;18.67;85.50
73547;SHT30;61807;48.384;-4.386;2023-07-31T02:58:06;18.68;85.46
73547;SHT30;61807;48.384;-4.386;2023-07-31T03:00:31;18.65;85.57
73547;SHT30;61807;48.384;-4.386;2023-07-31T03:02:57;18.65;85.65
73547;SHT30;61807;48.384;-4.386;2023-07-31T03:05:22;18.65;85.67
73547;SHT30;61807;48.384;-4.386;2023-07-31T03:07:48;18.68;85.79
73547;SHT30;61807;48.384;-4.386;2023-07-31T03:10:13;18.68;85.84
73547;SHT30;61807;48.384;-4.386;2023-07-31T03:12:40;18.68;85.80
73547;SHT30;61807;48.384;-4.386;2023-07-31T03:15:06;18.67;85.70
73547;SHT30;61807;48.384;-4.386;2023-07-31T03:17:31;18.67;85.79
73547;SHT30;61807;48.384;-4.386;2023-07-31T03:19:56;18.69;85.80
73547;SHT30;61807;48.384;-4.386;2023-07-31T03:22:22;18.69;85.76
73547;SHT30;61807;48.384;-4.386;2023-07-31T03:24:47;18.69;85.76
73547;SHT30;61807;48.384;-4.386;2023-07-31T03:27:13;18.71;85.94
73547;SHT30;61807;48.384;-4.386;2023-07-31T03:29:38;18.71;85.96
73547;SHT30;61807;48.384;-4.386;2023-07-31T03:32:03;18.69;85.82
73547;SHT30;61807;48.384;-4.386;2023-07-31T03:34:29;18.68;85.79
73547;SHT30;61807;48.384;-4.386;2023-07-31T03:36:57;18.67;85.97
73547;SHT30;61807;48.384;-4.386;2023-07-31T03:39:22;18.67;86.01
73547;SHT30;61807;48.384;-4.386;2023-07-31T03:41:47;18.67;86.05
73547;SHT30;61807;48.384;-4.386;2023-07-31T03:44:13;18.67;86.11
73547;SHT30;61807;48.384;-4.386;2023-07-31T03:46:38;18.68;86.06
73547;SHT30;61807;48.384;-4.386;2023-07-31T03:49:04;18.68;86.09
73547;SHT30;61807;48.384;-4.386;2023-07-31T03:51:29;18.68;86.09
73547;SHT30;61807;48.384;-4.386;2023-07-31T03:53:54;18.68;86.10
73547;SHT30;61807;48.384;-4.386;2023-07-31T03:56:20;18.68;86.15
73547;SHT30;61807;48.384;-4.386;2023-07-31T03:58:45;18.71;86.12
73547;SHT30;61807;48.384;-4.386;2023-07-31T04:01:10;18.69;86.09
73547;SHT30;61807;48.384;-4.386;2023-07-31T04:03:36;18.72;86.09
73547;SHT30;61807;48.384;-4.386;2023-07-31T04:06:01;18.71;86.10
73547;SHT30;61807;48.384;-4.386;2023-07-31T04:08:27;18.71;86.12
73547;SHT30;61807;48.384;-4.386;2023-07-31T04:10:52;18.72;86.09
73547;SHT30;61807;48.384;-4.386;2023-07-31T04:13:17;18.72;86.16
73547;SHT30;61807;48.384;-4.386;2023-07-31T04:15:48;18.72;86.23
73547;SHT30;61807;48.384;-4.386;2023-07-31T04:18:14;18.72;86.22
73547;SHT30;61807;48.384;-4.386;2023-07-31T04:20:39;18.73;86.20
73547;SHT30;61807;48.384;-4.386;2023-07-31T04:23:04;18.75;86.36
73547;SHT30;61807;48.384;-4.386;2023-07-31T04:25:30;18.73;86.28
73547;SHT30;61807;48.384;-4.386;2023-07-31T04:27:55;18.75;86.34
73547;SHT30;61807;48.384;-4.386;2023-07-31T04:30:20;18.75;86.32
73547;SHT30;61807;48.384;-4.386;2023-07-31T04:32:46;18.75;86.37
73547;SHT30;61807;48.384;-4.386;2023-07-31T04:35:11;18.75;86.45
73547;SHT30;61807;48.384;-4.386;2023-07-31T04:37:37;18.75;86.47
73547;SHT30;61807;48.384;-4.386;2023-07-31T04:40:03;18.78;86.48
73547;SHT30;61807;48.384;-4.386;2023-07-31T04:42:29;18.79;86.50
73547;SHT30;61807;48.384;-4.386;2023-07-31T04:44:54;18.79;86.45
73547;SHT30;61807;48.384;-4.386;2023-07-31T04:47:19;18.79;86.46
73547;SHT30;61807;48.384;-4.386;2023-07-31T04:49:45;18.85;86.45
73547;SHT30;61807;48.384;-4.386;2023-07-31T04:52:10;18.84;86.43
73547;SHT30;61807;48.384;-4.386;2023-07-31T04:54:36;18.84;86.61
73547;SHT30;61807;48.384;-4.386;2023-07-31T04:57:01;18.81;86.54
73547;SHT30;61807;48.384;-4.386;2023-07-31T04:59:26;18.82;86.55
73547;SHT30;61807;48.384;-4.386;2023-07-31T05:01:52;18.84;86.55
73547;SHT30;61807;48.384;-4.386;2023-07-31T05:04:17;18.84;86.52
73547;SHT30;61807;48.384;-4.386;2023-07-31T05:06:43;18.88;86.53
73547;SHT30;61807;48.384;-4.386;2023-07-31T05:09:08;18.84;86.59
73547;SHT30;61807;48.384;-4.386;2023-07-31T05:11:35;18.89;86.59
73547;SHT30;61807;48.384;-4.386;2023-07-31T05:14:00;18.91;86.56
73547;SHT30;61807;48.384;-4.386;2023-07-31T05:16:26;18.94;86.59
73547;SHT30;61807;48.384;-4.386;2023-07-31T05:18:51;18.92;86.61
73547;SHT30;61807;48.384;-4.386;2023-07-31T05:21:16;18.91;86.58
73547;SHT30;61807;48.384;-4.386;2023-07-31T05:23:42;18.94;86.58
73547;SHT30;61807;48.384;-4.386;2023-07-31T05:26:07;18.92;86.60
73547;SHT30;61807;48.384;-4.386;2023-07-31T05:28:35;18.89;86.69
73547;SHT30;61807;48.384;-4.386;2023-07-31T05:31:02;18.92;86.70
73547;SHT30;61807;48.384;-4.386;2023-07-31T05:33:27;18.94;86.65
73547;SHT30;61807;48.384;-4.386;2023-07-31T05:35:53;18.94;86.63
73547;SHT30;61807;48.384;-4.386;2023-07-31T05:38:18;18.95;86.70
73547;SHT30;61807;48.384;-4.386;2023-07-31T05:40:43;18.95;86.67
73547;SHT30;61807;48.384;-4.386;2023-07-31T05:43:09;18.94;86.73
73547;SHT30;61807;48.384;-4.386;2023-07-31T05:45:34;18.98;86.77
73547;SHT30;61807;48.384;-4.386;2023-07-31T05:48:00;19.00;86.78
73547;SHT30;61807;48.384;-4.386;2023-07-31T05:50:25;19.00;86.68
73547;SHT30;61807;48.384;-4.386;2023-07-31T05:52:51;19.02;86.68
73547;SHT30;61807;48.384;-4.386;2023-07-31T05:55:17;19.02;86.66
73547;SHT30;61807;48.384;-4.386;2023-07-31T05:57:42;19.05;86.63
73547;SHT30;61807;48.384;-4.386;2023-07-31T06:00:08;19.05;86.59
73547;SHT30;61807;48.384;-4.386;2023-07-31T06:02:33;19.05;86.63
73547;SHT30;61807;48.384;-4.386;2023-07-31T06:05:02;19.06;86.60
73547;SHT30;61807;48.384;-4.386;2023-07-31T06:07:29;19.08;86.71
73547;SHT30;61807;48.384;-4.386;2023-07-31T06:09:54;19.08;86.67
73547;SHT30;61807;48.384;-4.386;2023-07-31T06:12:20;19.10;86.62
73547;SHT30;61807;48.384;-4.386;2023-07-31T06:14:46;19.08;86.61
73547;SHT30;61807;48.384;-4.386;2023-07-31T06:17:11;19.10;86.64
73547;SHT30;61807;48.384;-4.386;2023-07-31T06:19:37;19.08;86.62
73547;SHT30;61807;48.384;-4.386;2023-07-31T06:22:02;19.10;86.65
73547;SHT30;61807;48.384;-4.386;2023-07-31T06:24:28;19.10;86.67
73547;SHT30;61807;48.384;-4.386;2023-07-31T06:26:53;19.15;86.63
73547;SHT30;61807;48.384;-4.386;2023-07-31T06:29:19;19.10;86.67
73547;SHT30;61807;48.384;-4.386;2023-07-31T06:31:44;19.10;86.73
73547;SHT30;61807;48.384;-4.386;2023-07-31T06:34:10;19.09;86.80
73547;SHT30;61807;48.384;-4.386;2023-07-31T06:36:35;19.06;86.78
73547;SHT30;61807;48.384;-4.386;2023-07-31T06:39:01;19.08;86.95
73547;SHT30;61807;48.384;-4.386;2023-07-31T06:41:26;19.06;86.91
73547;SHT30;61807;48.384;-4.386;2023-07-31T06:43:52;19.05;87.00
73547;SHT30;61807;48.384;-4.386;2023-07-31T06:46:17;19.05;87.10
73547;SHT30;61807;48.384;-4.386;2023-07-31T06:48:42;19.05;87.08
73547;SHT30;61807;48.384;-4.386;2023-07-31T06:51:08;19.06;87.11
73547;SHT30;61807;48.384;-4.386;2023-07-31T06:53:33;19.08;87.11
73547;SHT30;61807;48.384;-4.386;2023-07-31T06:55:59;19.12;87.06
73547;SHT30;61807;48.384;-4.386;2023-07-31T06:58:24;19.13;87.00
73547;SHT30;61807;48.384;-4.386;2023-07-31T07:00:49;19.15;87.02
73547;SHT30;61807;48.384;-4.386;2023-07-31T07:03:18;19.15;87.03
73547;SHT30;61807;48.384;-4.386;2023-07-31T07:05:43;19.15;86.96
73547;SHT30;61807;48.384;-4.386;2023-07-31T07:08:09;19.17;87.05
73547;SHT30;61807;48.384;-4.386;2023-07-31T07:10:34;19.19;87.02
73547;SHT30;61807;48.384;-4.386;2023-07-31T07:12:59;19.17;86.98
73547;SHT30;61807;48.384;-4.386;2023-07-31T07:15:25;19.19;87.02
73547;SHT30;61807;48.384;-4.386;2023-07-31T07:17:50;19.22;87.01
73547;SHT30;61807;48.384;-4.386;2023-07-31T07:20:16;19.24;87.03
73547;SHT30;61807;48.384;-4.386;2023-07-31T07:22:41;19.24;87.01
73547;SHT30;61807;48.384;-4.386;2023-07-31T07:25:09;19.24;86.96
73547;SHT30;61807;48.384;-4.386;2023-07-31T07:27:35;19.24;86.97
73547;SHT30;61807;48.384;-4.386;2023-07-31T07:30:00;19.23;86.97
73547;SHT30;61807;48.384;-4.386;2023-07-31T07:32:26;19.23;86.92
73547;SHT30;61807;48.384;-4.386;2023-07-31T07:34:51;19.23;87.02
73547;SHT30;61807;48.384;-4.386;2023-07-31T07:37:17;19.22;87.04
73547;SHT30;61807;48.384;-4.386;2023-07-31T07:39:42;19.22;87.07
73547;SHT30;61807;48.384;-4.386;2023-07-31T07:42:08;19.22;87.07
73547;SHT30;61807;48.384;-4.386;2023-07-31T07:44:33;19.20;87.04
73547;SHT30;61807;48.384;-4.386;2023-07-31T07:46:58;19.23;87.10
73547;SHT30;61807;48.384;-4.386;2023-07-31T07:49:24;19.27;87.11
73547;SHT30;61807;48.384;-4.386;2023-07-31T07:51:49;19.26;87.13
73547;SHT30;61807;48.384;-4.386;2023-07-31T07:54:15;19.29;87.14
73547;SHT30;61807;48.384;-4.386;2023-07-31T07:56:42;19.29;87.14
73547;SHT30;61807;48.384;-4.386;2023-07-31T07:59:07;19.33;87.17
73547;SHT30;61807;48.384;-4.386;2023-07-31T08:01:32;19.36;87.15
73547;SHT30;61807;48.384;-4.386;2023-07-31T08:03:58;19.37;87.14
73547;SHT30;61807;48.384;-4.386;2023-07-31T08:06:23;19.38;87.18
73547;SHT30;61807;48.384;-4.386;2023-07-31T08:08:49;19.40;87.12
73547;SHT30;61807;48.384;-4.386;2023-07-31T08:11:15;19.41;87.09
73547;SHT30;61807;48.384;-4.386;2023-07-31T08:13:40;19.45;87.07
73547;SHT30;61807;48.384;-4.386;2023-07-31T08:16:06;19.45;87.11
73547;SHT30;61807;48.384;-4.386;2023-07-31T08:18:31;19.43;87.15
73547;SHT30;61807;48.384;-4.386;2023-07-31T08:20:57;19.45;87.16
73547;SHT30;61807;48.384;-4.386;2023-07-31T08:23:23;19.47;87.15
73547;SHT30;61807;48.384;-4.386;2023-07-31T08:25:48;19.53;87.20
73547;SHT30;61807;48.384;-4.386;2023-07-31T08:28:15;19.54;87.08
73547;SHT30;61807;48.384;-4.386;2023-07-31T08:30:41;19.53;86.99
73547;SHT30;61807;48.384;-4.386;2023-07-31T08:33:07;19.53;86.98
73547;SHT30;61807;48.384;-4.386;2023-07-31T08:35:32;19.53;87.02
73547;SHT30;61807;48.384;-4.386;2023-07-31T08:37:58;19.51;87.01
73547;SHT30;61807;48.384;-4.386;2023-07-31T08:40:23;19.47;87.08
73547;SHT30;61807;48.384;-4.386;2023-07-31T08:42:51;19.51;87.14
73547;SHT30;61807;48.384;-4.386;2023-07-31T08:45:18;19.47;87.10
73547;SHT30;61807;48.384;-4.386;2023-07-31T08:47:46;19.49;87.11
73547;SHT30;61807;48.384;-4.386;2023-07-31T08:50:13;19.49;87.14
73547;SHT30;61807;48.384;-4.386;2023-07-31T08:52:38;19.49;87.09
73547;SHT30;61807;48.384;-4.386;2023-07-31T08:55:05;19.47;87.14
73547;SHT30;61807;48.384;-4.386;2023-07-31T08:57:31;19.50;87.26
73547;SHT30;61807;48.384;-4.386;2023-07-31T08:59:57;19.47;87.14
73547;SHT30;61807;48.384;-4.386;2023-07-31T09:02:26;19.45;87.20
73547;SHT30;61807;48.384;-4.386;2023-07-31T09:04:56;19.47;87.20
73547;SHT30;61807;48.384;-4.386;2023-07-31T09:07:23;19.46;87.22
73547;SHT30;61807;48.384;-4.386;2023-07-31T09:09:49;19.50;87.25
73547;SHT30;61807;48.384;-4.386;2023-07-31T09:12:15;19.50;87.30
73547;SHT30;61807;48.384;-4.386;2023-07-31T09:14:42;19.56;87.38
73547;SHT30;61807;48.384;-4.386;2023-07-31T09:17:07;19.57;87.27
73547;SHT30;61807;48.384;-4.386;2023-07-31T09:19:34;19.61;87.34
73547;SHT30;61807;48.384;-4.386;2023-07-31T09:22:03;19.67;87.26
73547;SHT30;61807;48.384;-4.386;2023-07-31T09:24:29;19.68;87.27
73547;SHT30;61807;48.384;-4.386;2023-07-31T09:26:56;19.67;87.16
73547;SHT30;61807;48.384;-4.386;2023-07-31T09:29:24;19.68;87.26
73547;SHT30;61807;48.384;-4.386;2023-07-31T09:31:50;19.71;87.29
73547;SHT30;61807;48.384;-4.386;2023-07-31T09:34:16;19.75;87.29
73547;SHT30;61807;48.384;-4.386;2023-07-31T09:39:09;19.81;87.30
73547;SHT30;61807;48.384;-4.386;2023-07-31T09:41:45;19.84;87.23
73547;SHT30;61807;48.384;-4.386;2023-07-31T09:44:11;19.85;87.20
73547;SHT30;61807;48.384;-4.386;2023-07-31T09:46:37;19.81;87.10
73547;SHT30;61807;48.384;-4.386;2023-07-31T09:49:13;19.78;87.14
73547;SHT30;61807;48.384;-4.386;2023-07-31T09:51:40;19.79;87.24
73547;SHT30;61807;48.384;-4.386;2023-07-31T09:56:36;19.78;87.24
73547;SHT30;61807;48.384;-4.386;2023-07-31T09:59:04;19.79;87.20
73547;SHT30;61807;48.384;-4.386;2023-07-31T10:01:30;19.78;87.19
73547;SHT30;61807;48.384;-4.386;2023-07-31T10:03:57;19.79;87.27
73547;SHT30;61807;48.384;-4.386;2023-07-31T10:06:24;19.82;87.37
73547;SHT30;61807;48.384;-4.386;2023-07-31T10:08:51;19.82;87.29
73547;SHT30;61807;48.384;-4.386;2023-07-31T10:11:18;19.84;87.30
73547;SHT30;61807;48.384;-4.386;2023-07-31T10:13:44;19.84;87.34
73547;SHT30;61807;48.384;-4.386;2023-07-31T10:16:12;19.87;87.36
73547;SHT30;61807;48.384;-4.386;2023-07-31T10:18:38;19.89;87.35
73547;SHT30;61807;48.384;-4.386;2023-07-31T10:21:05;19.92;87.32
73547;SHT30;61807;48.384;-4.386;2023-07-31T10:23:31;19.95;87.33
73547;SHT30;61807;48.384;-4.386;2023-07-31T10:25:57;20.01;87.35
73547;SHT30;61807;48.384;-4.386;2023-07-31T10:28:24;20.02;87.26
73547;SHT30;61807;48.384;-4.386;2023-07-31T10:30:50;20.04;87.11
73547;SHT30;61807;48.384;-4.386;2023-07-31T10:33:17;20.02;87.11
73547;SHT30;61807;48.384;-4.386;2023-07-31T10:35:44;20.02;87.07
73547;SHT30;61807;48.384;-4.386;2023-07-31T10:38:12;19.99;87.12
73547;SHT30;61807;48.384;-4.386;2023-07-31T10:40:38;20.02;87.14
73547;SHT30;61807;48.384;-4.386;2023-07-31T10:43:05;20.02;87.14
73547;SHT30;61807;48.384;-4.386;2023-07-31T10:45:35;20.02;87.16
73547;SHT30;61807;48.384;-4.386;2023-07-31T10:48:06;20.04;87.05
73547;SHT30;61807;48.384;-4.386;2023-07-31T10:50:36;20.05;87.11
73547;SHT30;61807;48.384;-4.386;2023-07-31T10:53:02;20.05;87.12
73547;SHT30;61807;48.384;-4.386;2023-07-31T10:58:05;20.12;87.05
73547;SHT30;61807;48.384;-4.386;2023-07-31T11:00:31;20.11;87.06
73547;SHT30;61807;48.384;-4.386;2023-07-31T11:05:49;20.06;86.97
73547;SHT30;61807;48.384;-4.386;2023-07-31T11:08:20;20.02;86.96
73547;SHT30;61807;48.384;-4.386;2023-07-31T11:10:49;19.99;86.94
73547;SHT30;61807;48.384;-4.386;2023-07-31T11:13:14;19.98;86.97
73547;SHT30;61807;48.384;-4.386;2023-07-31T11:15:40;19.95;87.00
73547;SHT30;61807;48.384;-4.386;2023-07-31T11:18:06;19.92;87.14
73547;SHT30;61807;48.384;-4.386;2023-07-31T11:20:34;19.88;87.08
73547;SHT30;61807;48.384;-4.386;2023-07-31T11:23:07;19.85;87.17
73547;SHT30;61807;48.384;-4.386;2023-07-31T11:25:33;19.81;87.15
73547;SHT30;61807;48.384;-4.386;2023-07-31T11:28:08;19.79;87.24
73547;SHT30;61807;48.384;-4.386;2023-07-31T11:30:34;19.78;87.25
73547;SHT30;61807;48.384;-4.386;2023-07-31T11:33:05;19.78;87.24
73547;SHT30;61807;48.384;-4.386;2023-07-31T11:35:36;19.77;87.23
73547;SHT30;61807;48.384;-4.386;2023-07-31T11:38:02;19.75;87.37
73547;SHT30;61807;48.384;-4.386;2023-07-31T11:40:28;19.74;87.25
73547;SHT30;61807;48.384;-4.386;2023-07-31T11:43:04;19.73;87.34
73547;SHT30;61807;48.384;-4.386;2023-07-31T11:45:30;19.73;87.39
73547;SHT30;61807;48.384;-4.386;2023-07-31T11:47:56;19.73;87.33
73547;SHT30;61807;48.384;-4.386;2023-07-31T11:50:23;19.71;87.37
73547;SHT30;61807;48.384;-4.386;2023-07-31T11:52:53;19.73;87.41
73547;SHT30;61807;48.384;-4.386;2023-07-31T11:55:20;19.73;87.48
73547;SHT30;61807;48.384;-4.386;2023-07-31T11:57:46;19.75;87.46
73547;SHT30;61807;48.384;-4.386;2023-07-31T12:00:12;19.74;87.37
73547;SHT30;61807;48.384;-4.386;2023-07-31T12:02:39;19.79;87.47
73547;SHT30;61807;48.384;-4.386;2023-07-31T12:05:09;19.82;87.42
73547;SHT30;61807;48.384;-4.386;2023-07-31T12:07:54;19.89;87.46
73547;SHT30;61807;48.384;-4.386;2023-07-31T12:12:59;19.98;87.35
73547;SHT30;61807;48.384;-4.386;2023-07-31T12:15:39;19.98;87.34
73547;SHT30;61807;48.384;-4.386;2023-07-31T12:18:12;19.98;87.29
73547;SHT30;61807;48.384;-4.386;2023-07-31T12:20:49;20.02;87.28
73547;SHT30;61807;48.384;-4.386;2023-07-31T12:23:36;19.99;87.11
73547;SHT30;61807;48.384;-4.386;2023-07-31T12:26:17;20.01;87.18
73547;SHT30;61807;48.384;-4.386;2023-07-31T12:28:44;20.02;87.25
73547;SHT30;61807;48.384;-4.386;2023-07-31T12:31:11;20.02;87.18
73547;SHT30;61807;48.384;-4.386;2023-07-31T12:33:39;20.02;87.14
73547;SHT30;61807;48.384;-4.386;2023-07-31T12:36:08;20.01;87.12
73547;SHT30;61807;48.384;-4.386;2023-07-31T12:38:34;19.99;87.08
73547;SHT30;61807;48.384;-4.386;2023-07-31T12:40:59;19.92;87.12
73547;SHT30;61807;48.384;-4.386;2023-07-31T12:43:25;19.94;87.17
73547;SHT30;61807;48.384;-4.386;2023-07-31T12:45:50;19.89;87.12
73547;SHT30;61807;48.384;-4.386;2023-07-31T12:48:16;19.85;87.20
73547;SHT30;61807;48.384;-4.386;2023-07-31T12:50:41;19.84;87.23
73547;SHT30;61807;48.384;-4.386;2023-07-31T12:53:07;19.82;87.34
73547;SHT30;61807;48.384;-4.386;2023-07-31T12:55:32;19.79;87.35
73547;SHT30;61807;48.384;-4.386;2023-07-31T12:58:03;19.79;87.37
73547;SHT30;61807;48.384;-4.386;2023-07-31T13:00:29;19.81;87.45
73547;SHT30;61807;48.384;-4.386;2023-07-31T13:02:54;19.82;87.49
73547;SHT30;61807;48.384;-4.386;2023-07-31T13:05:20;19.84;87.58
73547;SHT30;61807;48.384;-4.386;2023-07-31T13:07:46;19.84;87.68
73547;SHT30;61807;48.384;-4.386;2023-07-31T13:10:12;19.87;87.65
73547;SHT30;61807;48.384;-4.386;2023-07-31T13:12:37;19.91;87.61
73547;SHT30;61807;48.384;-4.386;2023-07-31T13:15:06;19.89;87.63
73547;SHT30;61807;48.384;-4.386;2023-07-31T13:17:32;19.91;87.60
73547;SHT30;61807;48.384;-4.386;2023-07-31T13:19:58;19.92;87.61
73547;SHT30;61807;48.384;-4.386;2023-07-31T13:22:24;19.92;87.64
73547;SHT30;61807;48.384;-4.386;2023-07-31T13:24:49;19.91;87.54
73547;SHT30;61807;48.384;-4.386;2023-07-31T13:27:14;19.89;87.61
73547;SHT30;61807;48.384;-4.386;2023-07-31T13:29:50;19.89;87.61
73547;SHT30;61807;48.384;-4.386;2023-07-31T13:32:16;19.87;87.65
73547;SHT30;61807;48.384;-4.386;2023-07-31T13:34:42;19.88;87.66
73547;SHT30;61807;48.384;-4.386;2023-07-31T13:37:08;19.89;87.68
73547;SHT30;61807;48.384;-4.386;2023-07-31T13:39:33;19.88;87.71
73547;SHT30;61807;48.384;-4.386;2023-07-31T13:41:59;19.87;87.74
73547;SHT30;61807;48.384;-4.386;2023-07-31T13:44:24;19.84;87.74
73547;SHT30;61807;48.384;-4.386;2023-07-31T13:46:50;19.85;87.74
73547;SHT30;61807;48.384;-4.386;2023-07-31T13:49:16;19.85;87.77
73547;SHT30;61807;48.384;-4.386;2023-07-31T13:51:41;19.85;87.83
73547;SHT30;61807;48.384;-4.386;2023-07-31T13:54:06;19.84;87.82
73547;SHT30;61807;48.384;-4.386;2023-07-31T13:56:32;19.81;87.87
73547;SHT30;61807;48.384;-4.386;2023-07-31T13:58:58;19.81;87.89
73547;SHT30;61807;48.384;-4.386;2023-07-31T14:01:23;19.79;87.92
73547;SHT30;61807;48.384;-4.386;2023-07-31T14:03:49;19.79;87.89
73547;SHT30;61807;48.384;-4.386;2023-07-31T14:06:14;19.78;87.91
73547;SHT30;61807;48.384;-4.386;2023-07-31T14:08:40;19.74;87.94
73547;SHT30;61807;48.384;-4.386;2023-07-31T14:11:05;19.77;88.01
73547;SHT30;61807;48.384;-4.386;2023-07-31T14:13:31;19.79;87.98
73547;SHT30;61807;48.384;-4.386;2023-07-31T14:15:56;19.79;88.05
73547;SHT30;61807;48.384;-4.386;2023-07-31T14:18:21;19.78;88.02
73547;SHT30;61807;48.384;-4.386;2023-07-31T14:20:47;19.78;88.04
73547;SHT30;61807;48.384;-4.386;2023-07-31T14:23:12;19.79;88.08
73547;SHT30;61807;48.384;-4.386;2023-07-31T14:25:38;19.82;88.04
73547;SHT30;61807;48.384;-4.386;2023-07-31T14:28:03;19.78;88.02
73547;SHT30;61807;48.384;-4.386;2023-07-31T14:30:28;19.81;88.05
73547;SHT30;61807;48.384;-4.386;2023-07-31T14:32:54;19.78;88.05
73547;SHT30;61807;48.384;-4.386;2023-07-31T14:35:19;19.84;88.01
73547;SHT30;61807;48.384;-4.386;2023-07-31T14:37:45;19.84;88.03
73547;SHT30;61807;48.384;-4.386;2023-07-31T14:40:12;19.81;88.03
73547;SHT30;61807;48.384;-4.386;2023-07-31T14:42:38;19.79;88.07
73547;SHT30;61807;48.384;-4.386;2023-07-31T14:45:05;19.81;88.07
73547;SHT30;61807;48.384;-4.386;2023-07-31T14:47:31;19.82;88.14
73547;SHT30;61807;48.384;-4.386;2023-07-31T14:49:57;19.87;88.13
73547;SHT30;61807;48.384;-4.386;2023-07-31T14:52:23;19.92;88.07
73547;SHT30;61807;48.384;-4.386;2023-07-31T14:54:48;19.91;88.05
73547;SHT30;61807;48.384;-4.386;2023-07-31T14:57:13;19.89;87.98
73547;SHT30;61807;48.384;-4.386;2023-07-31T14:59:39;19.91;87.98
73547;SHT30;61807;48.384;-4.386;2023-07-31T15:02:05;19.88;87.89
73547;SHT30;61807;48.384;-4.386;2023-07-31T15:04:30;19.88;87.92
73547;SHT30;61807;48.384;-4.386;2023-07-31T15:06:56;19.88;87.94
73547;SHT30;61807;48.384;-4.386;2023-07-31T15:09:21;19.91;87.95
73547;SHT30;61807;48.384;-4.386;2023-07-31T15:11:47;19.89;87.95
73547;SHT30;61807;48.384;-4.386;2023-07-31T15:14:12;19.88;87.98
73547;SHT30;61807;48.384;-4.386;2023-07-31T15:16:38;19.87;87.98
73547;SHT30;61807;48.384;-4.386;2023-07-31T15:19:03;19.87;87.98
73547;SHT30;61807;48.384;-4.386;2023-07-31T15:21:29;19.87;87.92
73547;SHT30;61807;48.384;-4.386;2023-07-31T15:23:55;19.85;87.97
73547;SHT30;61807;48.384;-4.386;2023-07-31T15:26:20;19.84;87.97
73547;SHT30;61807;48.384;-4.386;2023-07-31T15:28:55;19.82;87.99